Collegedale, TN (37315)

5:25 AM EST on December 25, 2014 (GMT -0500)
Collegedale Station | Change Station
CLOSE
Current Station
Personal Weather Station
Location: Ooltewah, TN
Elevation: 883 ft
Nearby Weather Stations

Elev 883 ft 35.07 °N, 85.09 °W | Updated 5 minutes ago

Overcast
Overcast
41.2 °F
Feels Like 41 °F
N
0.0
Wind Variable Wind from South

Today
High -- | Low -- °F
--% Chance of Precip.
Yesterday
High -- | Low -- °F
Precip. -- in
7:46 AM 5:34 PM
Waxing Crescent, 15% visible
Pressure 30.05 in
Visibility 10.0 miles
Clouds Overcast 4100 ft
Windchill 41 °F
Dew Point 36 °F
Humidity 81%
Rainfall 0.00 in
Snow Depth Not available.
UV 0 out of 12
Pollen .10 out of 12
Air Quality Not available.
Flu Activity Not available.
METAR KCHA 250953Z AUTO 27007KT 10SM OVC041 06/01 A3004 RMK AO2 SLP174 T00610006

More Conditions Fewer Conditions

Pressure 30.05 in
Visibility 10.0 miles
Clouds Overcast 4100 ft
Windchill 41 °F
Dew Point 36 °F
Humidity 81%
Rainfall 0.00 in
Snow Depth Not available.
UV 0 out of 12
Pollen .10 out of 12
Air Quality Not available.
Flu Activity Not available.
METAR KCHA 250953Z AUTO 27007KT 10SM OVC041 06/01 A3004 RMK AO2 SLP174 T00610006

More Conditions Fewer Conditions

10-Day Weather Forecast

Almanac

Astronomy

Dec. 25, 2014 Rise Set
Actual Time
Civil Twilight
Nautical Twilight
Astronomical Twilight
Moon
Length of Visible Light
Length of Day
Tomorrow will be .
, % of the Moon is Illuminated

Today's Extremes

State Highs State Lows

Community

WunderPhotos

Upload Photos

1,780,254 photos uploaded!

WunderBlogs® & News

Nearby

Air Quality

  Air Quality AQ Index Pollutant
Not available.

Snow Depth

Station Depth Elevation

Earthquake Activity

City Distance Mag. Time & Date
Minimum magnitude displayed is 2.5.

Coastal Water Temperatures

Place Temperature

Nearby Weather Stations